sensor_id;sensor_type;location;lat;lon;timestamp;pressure;altitude;pressure_sealevel;temperature;humidity
45357;BME280;31092;51.924;21.448;2023-03-22T00:00:07;100297.00;;;-1.09;100.00
45357;BME280;31092;51.924;21.448;2023-03-22T00:02:37;100300.38;;;-1.07;100.00
45357;BME280;31092;51.924;21.448;2023-03-22T00:05:03;100216.75;;;-1.52;100.00
45357;BME280;31092;51.924;21.448;2023-03-22T00:07:28;100255.69;;;-1.26;100.00
45357;BME280;31092;51.924;21.448;2023-03-22T00:09:55;100283.19;;;-1.14;100.00
45357;BME280;31092;51.924;21.448;2023-03-22T00:12:21;100259.34;;;-1.28;100.00
45357;BME280;31092;51.924;21.448;2023-03-22T00:14:46;100160.78;;;-1.89;100.00
45357;BME280;31092;51.924;21.448;2023-03-22T00:17:14;100294.63;;;-1.13;100.00
45357;BME280;31092;51.924;21.448;2023-03-22T00:19:39;100301.00;;;-1.17;100.00
45357;BME280;31092;51.924;21.448;2023-03-22T00:22:06;100290.81;;;-1.24;100.00
45357;BME280;31092;51.924;21.448;2023-03-22T00:24:32;100222.28;;;-1.57;100.00
45357;BME280;31092;51.924;21.448;2023-03-22T00:26:59;100309.88;;;-1.03;100.00
45357;BME280;31092;51.924;21.448;2023-03-22T00:29:25;100008.19;;;-2.89;100.00
45357;BME280;31092;51.924;21.448;2023-03-22T00:31:50;100199.34;;;-1.71;100.00
45357;BME280;31092;51.924;21.448;2023-03-22T00:34:18;100179.09;;;-1.86;100.00
45357;BME280;31092;51.924;21.448;2023-03-22T00:36:44;100187.69;;;-1.82;100.00
45357;BME280;31092;51.924;21.448;2023-03-22T00:39:10;100174.06;;;-1.90;100.00
45357;BME280;31092;51.924;21.448;2023-03-22T00:41:36;100274.03;;;-1.23;100.00
45357;BME280;31092;51.924;21.448;2023-03-22T00:44:02;100267.50;;;-1.31;100.00
45357;BME280;31092;51.924;21.448;2023-03-22T00:46:27;100274.88;;;-1.22;100.00
45357;BME280;31092;51.924;21.448;2023-03-22T00:48:53;100260.41;;;-1.31;100.00
45357;BME280;31092;51.924;21.448;2023-03-22T00:51:18;100241.03;;;-1.46;100.00
45357;BME280;31092;51.924;21.448;2023-03-22T00:53:44;100264.94;;;-1.33;100.00
45357;BME280;31092;51.924;21.448;2023-03-22T00:56:13;100214.81;;;-1.64;100.00
45357;BME280;31092;51.924;21.448;2023-03-22T00:58:40;100276.75;;;-1.24;100.00
45357;BME280;31092;51.924;21.448;2023-03-22T01:01:06;100159.19;;;-1.91;100.00
45357;BME280;31092;51.924;21.448;2023-03-22T01:03:32;100169.66;;;-1.90;100.00
45357;BME280;31092;51.924;21.448;2023-03-22T01:05:59;100286.22;;;-1.20;100.00
45357;BME280;31092;51.924;21.448;2023-03-22T01:08:25;100284.41;;;-1.19;100.00
45357;BME280;31092;51.924;21.448;2023-03-22T01:10:58;100229.78;;;-1.49;100.00
45357;BME280;31092;51.924;21.448;2023-03-22T01:13:25;100247.72;;;-1.40;100.00
45357;BME280;31092;51.924;21.448;2023-03-22T01:15:50;100180.38;;;-1.77;100.00
45357;BME280;31092;51.924;21.448;2023-03-22T01:18:16;100171.00;;;-1.83;100.00
45357;BME280;31092;51.924;21.448;2023-03-22T01:20:41;100288.41;;;-1.12;100.00
45357;BME280;31092;51.924;21.448;2023-03-22T01:23:07;100283.78;;;-1.09;100.00
45357;BME280;31092;51.924;21.448;2023-03-22T01:25:32;100171.31;;;-1.73;100.00
45357;BME280;31092;51.924;21.448;2023-03-22T01:27:58;100181.16;;;-1.61;100.00
45357;BME280;31092;51.924;21.448;2023-03-22T01:30:23;100270.63;;;-1.10;100.00
45357;BME280;31092;51.924;21.448;2023-03-22T01:32:49;100250.22;;;-1.23;100.00
45357;BME280;31092;51.924;21.448;2023-03-22T01:35:15;100255.41;;;-1.21;100.00
45357;BME280;31092;51.924;21.448;2023-03-22T01:37:52;100245.78;;;-1.22;100.00
45357;BME280;31092;51.924;21.448;2023-03-22T01:40:21;100252.88;;;-1.23;100.00
45357;BME280;31092;51.924;21.448;2023-03-22T01:42:46;100166.03;;;-1.73;100.00
45357;BME280;31092;51.924;21.448;2023-03-22T01:47:38;100246.81;;;-1.25;100.00
45357;BME280;31092;51.924;21.448;2023-03-22T01:50:06;100263.75;;;-1.13;100.00
45357;BME280;31092;51.924;21.448;2023-03-22T01:52:33;100242.03;;;-1.18;100.00
45357;BME280;31092;51.924;21.448;2023-03-22T01:54:59;100118.47;;;-1.87;100.00
45357;BME280;31092;51.924;21.448;2023-03-22T01:57:24;100191.41;;;-1.40;100.00
45357;BME280;31092;51.924;21.448;2023-03-22T01:59:50;100149.75;;;-1.65;100.00
45357;BME280;31092;51.924;21.448;2023-03-22T02:02:16;100141.81;;;-1.65;100.00
45357;BME280;31092;51.924;21.448;2023-03-22T02:04:47;100234.28;;;-1.21;100.00
45357;BME280;31092;51.924;21.448;2023-03-22T02:07:16;100133.41;;;-1.72;100.00
45357;BME280;31092;51.924;21.448;2023-03-22T02:09:54;100125.31;;;-1.69;100.00
45357;BME280;31092;51.924;21.448;2023-03-22T02:12:30;100249.56;;;-0.96;100.00
45357;BME280;31092;51.924;21.448;2023-03-22T02:18:11;100234.53;;;-0.95;100.00
45357;BME280;31092;51.924;21.448;2023-03-22T02:29:14;100096.41;;;-1.86;100.00
45357;BME280;31092;51.924;21.448;2023-03-22T02:35:38;100243.69;;;-0.87;100.00
45357;BME280;31092;51.924;21.448;2023-03-22T02:44:11;100236.13;;;-0.79;100.00
45357;BME280;31092;51.924;21.448;2023-03-22T02:46:48;100214.88;;;-0.91;100.00
45357;BME280;31092;51.924;21.448;2023-03-22T02:49:53;100235.09;;;-0.76;100.00
45357;BME280;31092;51.924;21.448;2023-03-22T02:52:17;100235.09;;;-0.76;100.00
45357;BME280;31092;51.924;21.448;2023-03-22T02:56:04;100229.81;;;-0.76;100.00
45357;BME280;31092;51.924;21.448;2023-03-22T02:58:25;100197.78;;;-0.86;100.00
45357;BME280;31092;51.924;21.448;2023-03-22T03:00:55;100122.91;;;-1.29;100.00
45357;BME280;31092;51.924;21.448;2023-03-22T03:03:22;100226.97;;;-0.59;100.00
45357;BME280;31092;51.924;21.448;2023-03-22T03:05:55;100197.03;;;-0.74;100.00
45357;BME280;31092;51.924;21.448;2023-03-22T03:08:22;100238.13;;;-0.54;100.00
45357;BME280;31092;51.924;21.448;2023-03-22T03:10:50;100227.81;;;-0.58;100.00
45357;BME280;31092;51.924;21.448;2023-03-22T03:13:18;100195.13;;;-0.72;100.00
45357;BME280;31092;51.924;21.448;2023-03-22T03:15:47;100098.09;;;-1.27;100.00
45357;BME280;31092;51.924;21.448;2023-03-22T03:18:36;100223.78;;;-0.50;100.00
45357;BME280;31092;51.924;21.448;2023-03-22T03:21:09;100214.22;;;-0.52;100.00
45357;BME280;31092;51.924;21.448;2023-03-22T03:26:49;100202.41;;;-0.75;100.00
45357;BME280;31092;51.924;21.448;2023-03-22T03:31:51;100097.13;;;-1.40;100.00
45357;BME280;31092;51.924;21.448;2023-03-22T03:34:33;100154.81;;;-1.04;100.00
45357;BME280;31092;51.924;21.448;2023-03-22T03:37:13;100137.56;;;-1.09;100.00
45357;BME280;31092;51.924;21.448;2023-03-22T03:39:53;100125.66;;;-1.16;100.00
45357;BME280;31092;51.924;21.448;2023-03-22T03:42:21;100126.31;;;-1.13;100.00
45357;BME280;31092;51.924;21.448;2023-03-22T03:44:50;100111.13;;;-1.24;100.00
45357;BME280;31092;51.924;21.448;2023-03-22T03:47:15;100181.84;;;-0.84;100.00
45357;BME280;31092;51.924;21.448;2023-03-22T03:49:41;100102.44;;;-1.26;100.00
45357;BME280;31092;51.924;21.448;2023-03-22T03:52:06;100190.31;;;-0.79;100.00
45357;BME280;31092;51.924;21.448;2023-03-22T03:54:32;100179.75;;;-0.93;100.00
45357;BME280;31092;51.924;21.448;2023-03-22T03:56:58;100111.59;;;-1.31;100.00
45357;BME280;31092;51.924;21.448;2023-03-22T03:59:23;100192.31;;;-0.83;100.00
45357;BME280;31092;51.924;21.448;2023-03-22T04:01:49;100029.09;;;-1.79;100.00
45357;BME280;31092;51.924;21.448;2023-03-22T04:04:18;100089.22;;;-1.40;100.00
45357;BME280;31092;51.924;21.448;2023-03-22T04:09:21;100204.97;;;-0.74;100.00
45357;BME280;31092;51.924;21.448;2023-03-22T04:11:46;100167.84;;;-1.01;100.00
45357;BME280;31092;51.924;21.448;2023-03-22T04:14:12;100199.59;;;-0.72;100.00
45357;BME280;31092;51.924;21.448;2023-03-22T04:16:37;100175.97;;;-0.89;100.00
45357;BME280;31092;51.924;21.448;2023-03-22T04:19:03;100176.25;;;-0.94;100.00
45357;BME280;31092;51.924;21.448;2023-03-22T04:21:28;100182.41;;;-0.93;100.00
45357;BME280;31092;51.924;21.448;2023-03-22T04:23:54;100155.59;;;-1.02;100.00
45357;BME280;31092;51.924;21.448;2023-03-22T04:26:20;100106.50;;;-1.34;100.00
45357;BME280;31092;51.924;21.448;2023-03-22T04:28:46;100185.50;;;-0.87;100.00
45357;BME280;31092;51.924;21.448;2023-03-22T04:31:12;100175.13;;;-0.90;100.00
45357;BME280;31092;51.924;21.448;2023-03-22T04:33:37;100190.44;;;-0.81;100.00
45357;BME280;31092;51.924;21.448;2023-03-22T04:36:11;100097.25;;;-1.27;100.00
45357;BME280;31092;51.924;21.448;2023-03-22T04:38:40;100194.09;;;-0.69;100.00
45357;BME280;31092;51.924;21.448;2023-03-22T04:41:07;100204.00;;;-0.58;100.00
45357;BME280;31092;51.924;21.448;2023-03-22T04:43:33;100181.91;;;-0.72;100.00
45357;BME280;31092;51.924;21.448;2023-03-22T04:46:03;100107.53;;;-1.23;100.00
45357;BME280;31092;51.924;21.448;2023-03-22T04:48:28;100230.28;;;-0.55;100.00
45357;BME280;31092;51.924;21.448;2023-03-22T04:50:55;100122.91;;;-1.15;100.00
45357;BME280;31092;51.924;21.448;2023-03-22T04:53:21;100182.03;;;-0.73;100.00
45357;BME280;31092;51.924;21.448;2023-03-22T04:55:53;100107.72;;;-1.11;100.00
45357;BME280;31092;51.924;21.448;2023-03-22T04:58:22;100203.94;;;-0.57;100.00
45357;BME280;31092;51.924;21.448;2023-03-22T05:00:49;100216.22;;;-0.56;100.00
45357;BME280;31092;51.924;21.448;2023-03-22T05:03:20;100088.00;;;-1.20;100.00
45357;BME280;31092;51.924;21.448;2023-03-22T05:05:53;100117.06;;;-1.06;100.00
45357;BME280;31092;51.924;21.448;2023-03-22T05:08:21;100224.59;;;-0.35;100.00
45357;BME280;31092;51.924;21.448;2023-03-22T05:10:53;100219.31;;;-0.35;100.00
45357;BME280;31092;51.924;21.448;2023-03-22T05:13:20;100163.22;;;-0.68;100.00
45357;BME280;31092;51.924;21.448;2023-03-22T05:15:47;100222.13;;;-0.23;100.00
45357;BME280;31092;51.924;21.448;2023-03-22T05:18:18;100247.41;;;-0.05;100.00
45357;BME280;31092;51.924;21.448;2023-03-22T05:20:51;100220.41;;;-0.10;100.00
45357;BME280;31092;51.924;21.448;2023-03-22T05:23:18;100055.13;;;-1.02;100.00
45357;BME280;31092;51.924;21.448;2023-03-22T05:25:49;100164.78;;;-0.37;100.00
45357;BME280;31092;51.924;21.448;2023-03-22T05:28:16;100147.84;;;-0.35;100.00
45357;BME280;31092;51.924;21.448;2023-03-22T05:30:44;100125.38;;;-0.42;100.00
45357;BME280;31092;51.924;21.448;2023-03-22T05:33:10;100210.88;;;0.14;100.00
45357;BME280;31092;51.924;21.448;2023-03-22T05:35:38;100107.72;;;-0.41;100.00
45357;BME280;31092;51.924;21.448;2023-03-22T05:38:05;100220.84;;;0.23;100.00
45357;BME280;31092;51.924;21.448;2023-03-22T05:40:31;100148.03;;;-0.11;100.00
45357;BME280;31092;51.924;21.448;2023-03-22T05:42:57;100236.28;;;0.44;100.00
45357;BME280;31092;51.924;21.448;2023-03-22T05:45:23;99974.16;;;-1.03;100.00
45357;BME280;31092;51.924;21.448;2023-03-22T05:47:49;100208.19;;;0.41;100.00
45357;BME280;31092;51.924;21.448;2023-03-22T05:50:17;100226.78;;;0.54;100.00
45357;BME280;31092;51.924;21.448;2023-03-22T05:52:43;100190.16;;;0.34;100.00
45357;BME280;31092;51.924;21.448;2023-03-22T05:55:10;100148.25;;;0.13;100.00
45357;BME280;31092;51.924;21.448;2023-03-22T05:57:39;100191.44;;;0.41;100.00
45357;BME280;31092;51.924;21.448;2023-03-22T06:00:08;100223.84;;;0.71;100.00
45357;BME280;31092;51.924;21.448;2023-03-22T06:02:38;100122.72;;;0.12;100.00
45357;BME280;31092;51.924;21.448;2023-03-22T06:05:05;100123.56;;;0.13;100.00
45357;BME280;31092;51.924;21.448;2023-03-22T06:07:31;100221.50;;;0.67;100.00
45357;BME280;31092;51.924;21.448;2023-03-22T06:09:56;100123.59;;;0.26;100.00
45357;BME280;31092;51.924;21.448;2023-03-22T06:12:22;100186.31;;;0.78;100.00
45357;BME280;31092;51.924;21.448;2023-03-22T06:14:50;100130.84;;;0.62;100.00
45357;BME280;31092;51.924;21.448;2023-03-22T06:17:16;100107.44;;;0.68;100.00
45357;BME280;31092;51.924;21.448;2023-03-22T06:19:42;100223.78;;;1.50;100.00
45357;BME280;31092;51.924;21.448;2023-03-22T06:22:08;100189.91;;;1.53;100.00
45357;BME280;31092;51.924;21.448;2023-03-22T06:24:34;100225.91;;;1.81;100.00
45357;BME280;31092;51.924;21.448;2023-03-22T06:27:00;100162.47;;;1.65;100.00
45357;BME280;31092;51.924;21.448;2023-03-22T06:29:25;100205.09;;;2.12;100.00
45357;BME280;31092;51.924;21.448;2023-03-22T06:31:51;100133.06;;;1.92;100.00
45357;BME280;31092;51.924;21.448;2023-03-22T06:34:16;100202.38;;;2.49;100.00
45357;BME280;31092;51.924;21.448;2023-03-22T06:36:42;100184.44;;;2.63;100.00
45357;BME280;31092;51.924;21.448;2023-03-22T06:39:08;100205.03;;;2.95;100.00
45357;BME280;31092;51.924;21.448;2023-03-22T06:41:34;100195.50;;;3.04;100.00
45357;BME280;31092;51.924;21.448;2023-03-22T06:43:59;100162.22;;;2.98;100.00
45357;BME280;31092;51.924;21.448;2023-03-22T06:46:25;100205.94;;;3.41;100.00
45357;BME280;31092;51.924;21.448;2023-03-22T06:48:50;100218.53;;;3.61;100.00
45357;BME280;31092;51.924;21.448;2023-03-22T06:51:16;100135.28;;;3.25;100.00
45357;BME280;31092;51.924;21.448;2023-03-22T06:53:41;100116.91;;;3.22;100.00
45357;BME280;31092;51.924;21.448;2023-03-22T06:56:07;100205.78;;;3.87;100.00
45357;BME280;31092;51.924;21.448;2023-03-22T06:58:33;100116.75;;;3.46;100.00
45357;BME280;31092;51.924;21.448;2023-03-22T07:00:58;100182.06;;;3.95;100.00
45357;BME280;31092;51.924;21.448;2023-03-22T07:03:24;100139.94;;;3.78;100.00
45357;BME280;31092;51.924;21.448;2023-03-22T07:05:49;100217.31;;;4.31;100.00
45357;BME280;31092;51.924;21.448;2023-03-22T07:08:15;100213.28;;;4.37;100.00
45357;BME280;31092;51.924;21.448;2023-03-22T07:10:41;100126.09;;;3.95;100.00
45357;BME280;31092;51.924;21.448;2023-03-22T07:13:08;100222.56;;;4.53;100.00
45357;BME280;31092;51.924;21.448;2023-03-22T07:15:34;100139.81;;;4.12;100.00
45357;BME280;31092;51.924;21.448;2023-03-22T07:18:00;100171.59;;;4.36;100.00
45357;BME280;31092;51.924;21.448;2023-03-22T07:20:26;100199.59;;;4.62;100.00
45357;BME280;31092;51.924;21.448;2023-03-22T07:22:51;100174.91;;;4.60;100.00
45357;BME280;31092;51.924;21.448;2023-03-22T07:25:17;100192.13;;;4.98;100.00
45357;BME280;31092;51.924;21.448;2023-03-22T07:27:43;100188.09;;;5.03;100.00
45357;BME280;31092;51.924;21.448;2023-03-22T07:30:10;100148.91;;;5.04;100.00
45357;BME280;31092;51.924;21.448;2023-03-22T07:32:38;100170.28;;;5.35;100.00
45357;BME280;31092;51.924;21.448;2023-03-22T07:35:04;100128.81;;;5.31;100.00
45357;BME280;31092;51.924;21.448;2023-03-22T07:37:30;100124.31;;;5.31;100.00
45357;BME280;31092;51.924;21.448;2023-03-22T07:39:55;100174.34;;;5.69;100.00
45357;BME280;31092;51.924;21.448;2023-03-22T07:42:20;100098.31;;;5.43;100.00
45357;BME280;31092;51.924;21.448;2023-03-22T07:44:46;100145.72;;;6.00;100.00
45357;BME280;31092;51.924;21.448;2023-03-22T07:47:13;100160.09;;;6.19;100.00
45357;BME280;31092;51.924;21.448;2023-03-22T07:49:39;100081.84;;;5.97;100.00
45357;BME280;31092;51.924;21.448;2023-03-22T07:52:05;100096.06;;;6.17;100.00
45357;BME280;31092;51.924;21.448;2023-03-22T07:54:30;100157.41;;;6.77;100.00
45357;BME280;31092;51.924;21.448;2023-03-22T07:56:57;100170.47;;;7.09;100.00
45357;BME280;31092;51.924;21.448;2023-03-22T07:59:22;100163.06;;;7.31;100.00
45357;BME280;31092;51.924;21.448;2023-03-22T08:01:49;100078.69;;;7.07;100.00
45357;BME280;31092;51.924;21.448;2023-03-22T08:04:14;100089.34;;;7.27;100.00
45357;BME280;31092;51.924;21.448;2023-03-22T08:06:40;100151.97;;;7.81;100.00
45357;BME280;31092;51.924;21.448;2023-03-22T08:09:07;100053.16;;;7.40;100.00
45357;BME280;31092;51.924;21.448;2023-03-22T08:11:34;100068.09;;;7.61;100.00
45357;BME280;31092;51.924;21.448;2023-03-22T08:13:59;100130.38;;;8.00;100.00
45357;BME280;31092;51.924;21.448;2023-03-22T08:16:25;100099.09;;;7.91;100.00
45357;BME280;31092;51.924;21.448;2023-03-22T08:18:51;100157.25;;;8.54;100.00
45357;BME280;31092;51.924;21.448;2023-03-22T08:21:16;100144.50;;;8.56;100.00
45357;BME280;31092;51.924;21.448;2023-03-22T08:23:42;100129.63;;;8.61;100.00
45357;BME280;31092;51.924;21.448;2023-03-22T08:26:08;100140.03;;;8.82;100.00
45357;BME280;31092;51.924;21.448;2023-03-22T08:28:34;100077.94;;;8.59;100.00
45357;BME280;31092;51.924;21.448;2023-03-22T08:30:59;100106.09;;;9.07;100.00
45357;BME280;31092;51.924;21.448;2023-03-22T08:33:25;100095.59;;;9.22;100.00
45357;BME280;31092;51.924;21.448;2023-03-22T08:35:50;100059.41;;;9.08;100.00
45357;BME280;31092;51.924;21.448;2023-03-22T08:38:16;100125.66;;;9.60;100.00
45357;BME280;31092;51.924;21.448;2023-03-22T08:40:47;100124.91;;;9.84;100.00
45357;BME280;31092;51.924;21.448;2023-03-22T08:43:44;100131.34;;;10.16;100.00
45357;BME280;31092;51.924;21.448;2023-03-22T08:46:29;100119.63;;;10.33;100.00
45357;BME280;31092;51.924;21.448;2023-03-22T08:48:55;100113.75;;;10.62;100.00
45357;BME280;31092;51.924;21.448;2023-03-22T08:51:28;100106.47;;;10.87;100.00
45357;BME280;31092;51.924;21.448;2023-03-22T08:57:34;100111.56;;;11.38;100.00
45357;BME280;31092;51.924;21.448;2023-03-22T09:10:18;100014.13;;;11.72;100.00
45357;BME280;31092;51.924;21.448;2023-03-22T09:15:46;100067.53;;;12.68;100.00
45357;BME280;31092;51.924;21.448;2023-03-22T09:18:15;100014.44;;;12.76;100.00
45357;BME280;31092;51.924;21.448;2023-03-22T09:20:41;100021.63;;;13.13;100.00
45357;BME280;31092;51.924;21.448;2023-03-22T09:23:39;100006.41;;;13.12;100.00
45357;BME280;31092;51.924;21.448;2023-03-22T09:32:52;100063.84;;;13.95;100.00
45357;BME280;31092;51.924;21.448;2023-03-22T09:45:13;99997.84;;;12.64;100.00
45357;BME280;31092;51.924;21.448;2023-03-22T10:01:22;100064.63;;;12.17;100.00
45357;BME280;31092;51.924;21.448;2023-03-22T10:17:27;99969.25;;;11.17;100.00
45357;BME280;31092;51.924;21.448;2023-03-22T10:25:42;99961.59;;;11.37;100.00
45357;BME280;31092;51.924;21.448;2023-03-22T10:31:32;99953.56;;;11.51;100.00
45357;BME280;31092;51.924;21.448;2023-03-22T10:34:49;100014.00;;;11.96;100.00
45357;BME280;31092;51.924;21.448;2023-03-22T10:37:32;99907.28;;;11.63;100.00
45357;BME280;31092;51.924;21.448;2023-03-22T10:43:44;99936.78;;;12.10;100.00
45357;BME280;31092;51.924;21.448;2023-03-22T10:49:50;99938.00;;;12.37;100.00
45357;BME280;31092;51.924;21.448;2023-03-22T10:55:54;99995.50;;;12.90;100.00
45357;BME280;31092;51.924;21.448;2023-03-22T11:08:55;99965.06;;;12.67;100.00
45357;BME280;31092;51.924;21.448;2023-03-22T11:11:33;99869.81;;;12.06;100.00
45357;BME280;31092;51.924;21.448;2023-03-22T11:18:07;99976.50;;;12.54;100.00
45357;BME280;31092;51.924;21.448;2023-03-22T11:23:32;99970.72;;;12.42;100.00
45357;BME280;31092;51.924;21.448;2023-03-22T11:26:38;99976.22;;;12.64;100.00
45357;BME280;31092;51.924;21.448;2023-03-22T11:52:47;99949.13;;;12.72;100.00
45357;BME280;31092;51.924;21.448;2023-03-22T11:59:37;99953.22;;;12.53;100.00
45357;BME280;31092;51.924;21.448;2023-03-22T12:02:29;99942.78;;;12.50;100.00
45357;BME280;31092;51.924;21.448;2023-03-22T12:15:20;99908.38;;;12.00;100.00
45357;BME280;31092;51.924;21.448;2023-03-22T12:28:02;99934.66;;;12.20;100.00
45357;BME280;31092;51.924;21.448;2023-03-22T12:31:10;99857.91;;;11.77;100.00
45357;BME280;31092;51.924;21.448;2023-03-22T12:34:21;99927.31;;;12.29;100.00
45357;BME280;31092;51.924;21.448;2023-03-22T12:40:34;99914.38;;;12.54;100.00
45357;BME280;31092;51.924;21.448;2023-03-22T12:47:04;99914.53;;;12.82;100.00
45357;BME280;31092;51.924;21.448;2023-03-22T12:53:34;99869.34;;;12.76;100.00
45357;BME280;31092;51.924;21.448;2023-03-22T13:23:23;99863.53;;;14.71;100.00
45357;BME280;31092;51.924;21.448;2023-03-22T13:26:59;99862.00;;;15.09;100.00
45357;BME280;31092;51.924;21.448;2023-03-22T13:36:25;99844.53;;;14.29;100.00
45357;BME280;31092;51.924;21.448;2023-03-22T13:52:04;99852.16;;;13.84;100.00
45357;BME280;31092;51.924;21.448;2023-03-22T14:29:17;99834.25;;;13.19;100.00
45357;BME280;31092;51.924;21.448;2023-03-22T14:31:44;99812.81;;;12.96;100.00
45357;BME280;31092;51.924;21.448;2023-03-22T14:34:15;99765.41;;;12.57;100.00
45357;BME280;31092;51.924;21.448;2023-03-22T14:36:45;99810.53;;;12.78;100.00
45357;BME280;31092;51.924;21.448;2023-03-22T14:39:21;99785.63;;;12.61;100.00
45357;BME280;31092;51.924;21.448;2023-03-22T14:42:06;99826.00;;;12.84;100.00
45357;BME280;31092;51.924;21.448;2023-03-22T14:44:53;99823.47;;;12.83;100.00
45357;BME280;31092;51.924;21.448;2023-03-22T14:47:25;99813.41;;;12.77;100.00
45357;BME280;31092;51.924;21.448;2023-03-22T14:49:55;99773.91;;;12.54;100.00
45357;BME280;31092;51.924;21.448;2023-03-22T14:52:24;99794.00;;;12.66;100.00
45357;BME280;31092;51.924;21.448;2023-03-22T14:54:53;99745.25;;;12.38;100.00
45357;BME280;31092;51.924;21.448;2023-03-22T14:57:25;99729.72;;;12.26;100.00
45357;BME280;31092;51.924;21.448;2023-03-22T14:59:51;99800.63;;;12.64;100.00
45357;BME280;31092;51.924;21.448;2023-03-22T15:02:25;99811.78;;;12.61;100.00
45357;BME280;31092;51.924;21.448;2023-03-22T15:04:54;99798.41;;;12.53;100.00
45357;BME280;31092;51.924;21.448;2023-03-22T15:07:20;99723.50;;;12.10;100.00
45357;BME280;31092;51.924;21.448;2023-03-22T15:09:46;99805.47;;;12.54;100.00
45357;BME280;31092;51.924;21.448;2023-03-22T15:12:13;99725.75;;;12.07;100.00
45357;BME280;31092;51.924;21.448;2023-03-22T15:14:40;99790.69;;;12.50;100.00
45357;BME280;31092;51.924;21.448;2023-03-22T15:17:09;99727.41;;;12.08;100.00
45357;BME280;31092;51.924;21.448;2023-03-22T15:19:40;99722.38;;;12.05;100.00
45357;BME280;31092;51.924;21.448;2023-03-22T15:22:16;99715.31;;;12.04;100.00
45357;BME280;31092;51.924;21.448;2023-03-22T15:24:57;99735.78;;;12.13;100.00
45357;BME280;31092;51.924;21.448;2023-03-22T15:27:23;99724.63;;;12.01;100.00
45357;BME280;31092;51.924;21.448;2023-03-22T15:29:49;99802.69;;;12.47;100.00
45357;BME280;31092;51.924;21.448;2023-03-22T15:32:17;99704.19;;;11.92;100.00
45357;BME280;31092;51.924;21.448;2023-03-22T15:34:45;99772.19;;;12.32;100.00
45357;BME280;31092;51.924;21.448;2023-03-22T15:37:40;99769.00;;;12.28;100.00
45357;BME280;31092;51.924;21.448;2023-03-22T15:40:25;99710.78;;;11.89;100.00
45357;BME280;31092;51.924;21.448;2023-03-22T15:43:15;99767.06;;;12.22;100.00
45357;BME280;31092;51.924;21.448;2023-03-22T15:46:12;99787.13;;;12.34;100.00
45357;BME280;31092;51.924;21.448;2023-03-22T15:51:19;99766.97;;;12.15;100.00
45357;BME280;31092;51.924;21.448;2023-03-22T15:53:47;99705.53;;;11.73;100.00
45357;BME280;31092;51.924;21.448;2023-03-22T15:58:55;99778.44;;;12.03;100.00
45357;BME280;31092;51.924;21.448;2023-03-22T16:01:22;99698.38;;;11.50;100.00
45357;BME280;31092;51.924;21.448;2023-03-22T16:03:53;99764.47;;;11.84;100.00
45357;BME280;31092;51.924;21.448;2023-03-22T16:06:22;99763.78;;;11.82;100.00
45357;BME280;31092;51.924;21.448;2023-03-22T16:08:49;99774.69;;;11.74;100.00
45357;BME280;31092;51.924;21.448;2023-03-22T16:11:26;99685.41;;;11.16;100.00
45357;BME280;31092;51.924;21.448;2023-03-22T16:14:12;99675.91;;;11.06;100.00
45357;BME280;31092;51.924;21.448;2023-03-22T16:16:38;99687.72;;;11.05;100.00
45357;BME280;31092;51.924;21.448;2023-03-22T16:19:04;99764.28;;;11.48;100.00
45357;BME280;31092;51.924;21.448;2023-03-22T16:21:30;99674.69;;;10.93;100.00
45357;BME280;31092;51.924;21.448;2023-03-22T16:23:59;99689.81;;;10.94;100.00
45357;BME280;31092;51.924;21.448;2023-03-22T16:26:25;99738.22;;;11.25;100.00
45357;BME280;31092;51.924;21.448;2023-03-22T16:28:51;99755.44;;;11.24;100.00
45357;BME280;31092;51.924;21.448;2023-03-22T16:31:18;99747.41;;;11.16;100.00
45357;BME280;31092;51.924;21.448;2023-03-22T16:33:45;99674.41;;;10.65;100.00
45357;BME280;31092;51.924;21.448;2023-03-22T16:36:14;99771.00;;;11.14;100.00
45357;BME280;31092;51.924;21.448;2023-03-22T16:38:40;99767.50;;;11.14;100.00
45357;BME280;31092;51.924;21.448;2023-03-22T16:41:10;99684.03;;;10.60;100.00
45357;BME280;31092;51.924;21.448;2023-03-22T16:43:40;99656.56;;;10.41;100.00
45357;BME280;31092;51.924;21.448;2023-03-22T16:46:09;99755.50;;;10.93;100.00
45357;BME280;31092;51.924;21.448;2023-03-22T16:48:35;99774.19;;;10.95;100.00
45357;BME280;31092;51.924;21.448;2023-03-22T16:51:02;99617.09;;;10.02;100.00
45357;BME280;31092;51.924;21.448;2023-03-22T16:53:29;99702.09;;;10.51;100.00
45357;BME280;31092;51.924;21.448;2023-03-22T16:55:54;99703.41;;;10.55;100.00
45357;BME280;31092;51.924;21.448;2023-03-22T16:58:20;99735.94;;;10.76;100.00
45357;BME280;31092;51.924;21.448;2023-03-22T17:00:47;99764.50;;;10.86;100.00
45357;BME280;31092;51.924;21.448;2023-03-22T17:03:16;99685.06;;;10.36;100.00
45357;BME280;31092;51.924;21.448;2023-03-22T17:05:42;99681.69;;;10.34;100.00
45357;BME280;31092;51.924;21.448;2023-03-22T17:08:18;99765.00;;;10.81;100.00
45357;BME280;31092;51.924;21.448;2023-03-22T17:10:44;99669.63;;;10.21;100.00
45357;BME280;31092;51.924;21.448;2023-03-22T17:13:12;99732.16;;;10.63;100.00
45357;BME280;31092;51.924;21.448;2023-03-22T17:15:43;99701.31;;;10.42;100.00
45357;BME280;31092;51.924;21.448;2023-03-22T17:18:10;99746.63;;;10.62;100.00
45357;BME280;31092;51.924;21.448;2023-03-22T17:20:38;99686.13;;;10.18;100.00
45357;BME280;31092;51.924;21.448;2023-03-22T17:23:05;99739.59;;;10.52;100.00
45357;BME280;31092;51.924;21.448;2023-03-22T17:25:34;99678.41;;;10.15;100.00